Aviation Digital Data Service (ADDS)

Output produced by METARs form (1135 UTC 19 January 2019)
found at http://www.aviationweather.gov/metar/data/
 
TAF VRMG 191100Z 1912/2018 31010KT 7000 FEW017TCU 
     TEMPO 1912/1918 32015G25KT 4000 SHRA SCT016 FEW017CB